Time;durP1;ratioP1;P1;durP2;ratioP2;P2;SDS_P1;SDS_P2;PMS_P1;PMS_P2;Temp;Humidity;BMP_temperature;BMP_pressure;BME280_temperature;BME280_humidity;BME280_pressure;Samples;Min_cycle;Max_cycle;Signal;HPM_P1;HPM_P2
2022/08/28 00:01:40;;;;;;;1.37;1.00;;;25.00;69.40;;;;;;5083774;28;20456;-65
2022/08/28 00:04:12;;;;;;;2.00;1.00;;;24.80;70.10;;;;;;5083560;28;20444;-65
2022/08/28 00:06:43;;;;;;;1.13;0.97;;;24.70;70.20;;;;;;5082864;28;20464;-65
2022/08/28 00:09:14;;;;;;;2.10;1.60;;;24.40;69.80;;;;;;5083070;28;20483;-65
2022/08/28 00:11:46;;;;;;;1.60;1.47;;;24.30;70.60;;;;;;5083329;28;20458;-65
2022/08/28 00:14:17;;;;;;;1.60;1.50;;;24.10;70.60;;;;;;5083546;28;20412;-65
2022/08/28 00:16:48;;;;;;;0.90;0.90;;;23.90;70.70;;;;;;5083651;28;20899;-65
2022/08/28 00:19:23;;;;;;;1.23;0.80;;;23.90;70.60;;;;;;5082942;28;20939;-65
2022/08/28 00:21:54;;;;;;;1.60;1.10;;;23.90;70.50;;;;;;5082541;28;20453;-65
2022/08/28 00:24:25;;;;;;;1.30;1.20;;;23.60;71.00;;;;;;5083276;28;20451;-65
2022/08/28 00:29:43;;;;;;;3.50;1.27;;;23.60;72.40;;;;;;5082917;28;20440;-65
2022/08/28 00:32:14;;;;;;;1.20;1.10;;;23.60;72.70;;;;;;5083255;28;20442;-65
2022/08/28 00:34:46;;;;;;;1.10;0.90;;;23.60;72.60;;;;;;5083256;28;20455;-65
2022/08/28 00:37:17;;;;;;;1.50;0.90;;;23.70;71.40;;;;;;5082494;28;20443;-65
2022/08/28 00:39:53;;;;;;;3.33;1.30;;;23.60;72.40;;;;;;5082972;28;20521;-65
2022/08/28 00:42:25;;;;;;;1.97;1.00;;;23.40;72.60;;;;;;5082652;28;21038;-65
2022/08/28 00:44:55;;;;;;;1.60;1.50;;;23.20;72.40;;;;;;5082974;28;20451;-65
2022/08/28 00:47:27;;;;;;;1.90;1.53;;;23.20;73.30;;;;;;5083292;28;20534;-65
2022/08/28 00:49:59;;;;;;;1.83;1.30;;;23.30;72.80;;;;;;5082877;28;20458;-66
2022/08/28 00:52:29;;;;;;;1.43;1.30;;;23.30;73.20;;;;;;5082409;28;20485;-66
2022/08/28 00:55:03;;;;;;;1.30;1.20;;;23.20;72.70;;;;;;5082965;28;20573;-65
2022/08/28 00:57:37;;;;;;;1.17;0.90;;;23.20;74.10;;;;;;5082929;28;20456;-66
2022/08/28 01:00:11;;;;;;;4.17;1.43;;;23.20;73.30;;;;;;5082944;28;20443;-66
2022/08/28 01:02:42;;;;;;;2.73;1.20;;;23.20;73.10;;;;;;5082969;28;20414;-65
2022/08/28 01:05:16;;;;;;;4.50;1.53;;;23.20;74.00;;;;;;5082906;28;20447;-65
2022/08/28 01:07:49;;;;;;;2.07;1.00;;;23.20;75.00;;;;;;5082298;28;20811;-65
2022/08/28 01:10:23;;;;;;;2.27;1.13;;;23.10;75.20;;;;;;5082889;28;20446;-65
2022/08/28 01:12:55;;;;;;;1.70;1.60;;;23.10;76.00;;;;;;5082716;28;20447;-66
2022/08/28 01:15:30;;;;;;;3.03;1.50;;;23.10;75.70;;;;;;5082879;28;20444;-65
2022/08/28 01:18:05;;;;;;;1.27;1.17;;;22.90;75.50;;;;;;5082786;28;20443;-65
2022/08/28 01:20:44;;;;;;;2.90;1.50;;;22.90;75.70;;;;;;5082245;28;20551;-65
2022/08/28 01:23:25;;;;;;;3.30;2.40;;;22.80;76.30;;;;;;5082737;28;20451;-65
2022/08/28 01:25:59;;;;;;;7.10;4.33;;;22.80;76.20;;;;;;5082600;28;20451;-64
2022/08/28 01:28:39;;;;;;;2.10;1.53;;;22.80;76.20;;;;;;5082666;28;20978;-65
2022/08/28 01:31:12;;;;;;;6.33;3.30;;;22.70;75.70;;;;;;5082255;28;20451;-65
2022/08/28 01:33:43;;;;;;;3.63;1.70;;;22.70;76.70;;;;;;5082749;28;20402;-65
2022/08/28 01:36:15;;;;;;;2.00;1.20;;;22.70;76.50;;;;;;5081939;28;20447;-65
2022/08/28 01:38:50;;;;;;;1.83;1.43;;;22.60;76.50;;;;;;5082390;28;20451;-65
2022/08/28 01:41:22;;;;;;;1.23;1.13;;;22.40;77.10;;;;;;5082105;28;20475;-65
2022/08/28 01:43:54;;;;;;;1.80;1.20;;;22.40;77.70;;;;;;5083516;28;20481;-65
2022/08/28 01:46:24;;;;;;;1.30;1.20;;;22.20;78.00;;;;;;5085995;28;20424;-66
2022/08/28 01:48:55;;;;;;;1.73;1.20;;;22.10;78.90;;;;;;5086049;28;20491;-64
2022/08/28 01:51:26;;;;;;;1.93;1.53;;;22.00;79.20;;;;;;5085296;28;20791;-65
2022/08/28 01:54:03;;;;;;;1.60;1.17;;;22.00;79.40;;;;;;5086036;28;20454;-65
2022/08/28 01:56:37;;;;;;;1.63;1.53;;;21.80;80.20;;;;;;5085729;28;20501;-65
2022/08/28 01:59:10;;;;;;;1.90;1.77;;;21.80;80.10;;;;;;5085999;28;20419;-65
2022/08/28 02:01:41;;;;;;;2.30;1.50;;;21.80;80.20;;;;;;5085634;28;20451;-65
2022/08/28 02:04:13;;;;;;;2.50;1.57;;;21.80;80.20;;;;;;5086209;28;20928;-65
2022/08/28 02:06:44;;;;;;;2.33;1.23;;;21.60;80.50;;;;;;5085159;28;20447;-65
2022/08/28 02:09:14;;;;;;;1.63;1.30;;;21.70;80.40;;;;;;5085622;28;20502;-65
2022/08/28 02:11:47;;;;;;;2.03;1.40;;;21.70;80.00;;;;;;5085200;28;20458;-65
2022/08/28 02:14:18;;;;;;;1.67;1.47;;;21.50;80.40;;;;;;5085400;28;20439;-65
2022/08/28 02:16:48;;;;;;;1.23;1.07;;;21.40;81.00;;;;;;5085356;28;20428;-65
2022/08/28 02:19:19;;;;;;;1.47;1.37;;;21.30;80.80;;;;;;5085979;28;20398;-65
2022/08/28 02:21:50;;;;;;;2.20;1.63;;;21.30;80.80;;;;;;5084655;28;20622;-65
2022/08/28 02:24:21;;;;;;;2.10;1.40;;;21.20;81.30;;;;;;5085460;28;20447;-65
2022/08/28 02:26:53;;;;;;;4.97;1.83;;;21.20;82.40;;;;;;5085101;28;20450;-65
2022/08/28 02:29:25;;;;;;;1.50;1.30;;;21.10;82.50;;;;;;5085452;28;20474;-65
2022/08/28 02:31:56;;;;;;;1.83;1.73;;;20.90;83.70;;;;;;5084883;28;20806;-65
2022/08/28 02:34:27;;;;;;;1.50;1.40;;;20.90;84.00;;;;;;5085433;28;20447;-65
2022/08/28 02:36:58;;;;;;;4.23;1.63;;;20.80;84.50;;;;;;5084699;28;20443;-64
2022/08/28 02:39:29;;;;;;;1.57;1.47;;;20.70;85.00;;;;;;5085131;28;20452;-65
2022/08/28 02:42:01;;;;;;;1.50;1.20;;;20.70;85.20;;;;;;5084656;28;20518;-65
2022/08/28 02:44:32;;;;;;;1.27;0.97;;;20.60;85.10;;;;;;5085157;28;20749;-65
2022/08/28 02:47:03;;;;;;;2.30;1.83;;;20.50;85.70;;;;;;5085317;28;20410;-65
2022/08/28 02:49:33;;;;;;;1.93;1.40;;;20.40;86.20;;;;;;5085302;28;20466;-65
2022/08/28 02:52:06;;;;;;;1.80;1.60;;;20.40;86.70;;;;;;5084158;28;20516;-65
2022/08/28 02:54:38;;;;;;;2.07;1.77;;;20.30;87.20;;;;;;5084214;28;20441;-65
2022/08/28 02:57:11;;;;;;;1.93;1.60;;;20.20;87.80;;;;;;5084669;28;20430;-65
2022/08/28 02:59:42;;;;;;;1.30;1.20;;;20.10;88.80;;;;;;5085029;28;20430;-65
2022/08/28 03:02:13;;;;;;;3.50;1.60;;;20.00;89.30;;;;;;5084706;28;20413;-65
2022/08/28 03:04:43;;;;;;;1.40;1.30;;;19.90;90.00;;;;;;5085029;28;20424;-65
2022/08/28 03:07:15;;;;;;;2.20;1.50;;;20.00;90.00;;;;;;5084103;28;20456;-65
2022/08/28 03:09:46;;;;;;;2.07;1.87;;;19.90;90.60;;;;;;5084791;28;20865;-65
2022/08/28 03:12:22;;;;;;;3.67;1.90;;;19.70;91.00;;;;;;5084243;28;20997;-65
2022/08/28 03:14:54;;;;;;;1.40;1.30;;;19.70;91.10;;;;;;5084350;28;20451;-65
2022/08/28 03:17:24;;;;;;;1.83;1.40;;;19.60;91.30;;;;;;5084576;28;20428;-65
2022/08/28 03:19:55;;;;;;;1.80;1.20;;;19.60;91.50;;;;;;5084895;28;20447;-65
2022/08/28 03:25:11;;;;;;;1.97;1.77;;;19.50;91.90;;;;;;5084238;28;20443;-65
2022/08/28 03:27:44;;;;;;;2.30;1.70;;;19.40;92.10;;;;;;5084163;28;20447;-65
2022/08/28 03:30:16;;;;;;;1.97;1.47;;;19.30;92.30;;;;;;5084337;28;20917;-65
2022/08/28 03:32:47;;;;;;;2.13;1.93;;;19.30;92.30;;;;;;5083805;28;20435;-65
2022/08/28 03:35:19;;;;;;;2.40;1.70;;;19.20;92.60;;;;;;5084501;28;20424;-65
2022/08/28 03:37:49;;;;;;;2.60;1.73;;;19.20;92.70;;;;;;5083565;28;20448;-65
2022/08/28 03:40:20;;;;;;;3.00;2.10;;;19.20;93.00;;;;;;5084049;28;20429;-65
2022/08/28 03:42:53;;;;;;;1.50;1.10;;;19.10;93.40;;;;;;5083517;28;20479;-65
2022/08/28 03:45:24;;;;;;;1.67;1.57;;;19.00;93.50;;;;;;5083886;28;20454;-65
2022/08/28 03:47:55;;;;;;;1.57;1.47;;;19.00;93.80;;;;;;5083761;28;20424;-65
2022/08/28 03:50:26;;;;;;;2.23;1.80;;;19.00;93.90;;;;;;5084157;28;20518;-65
2022/08/28 03:52:58;;;;;;;2.80;1.70;;;18.90;94.20;;;;;;5083074;28;20433;-65
2022/08/28 03:55:29;;;;;;;2.13;1.60;;;18.80;94.50;;;;;;5083920;28;20426;-65
2022/08/28 03:58:01;;;;;;;1.47;1.37;;;18.80;94.80;;;;;;5083453;28;20482;-65
2022/08/28 04:00:32;;;;;;;1.93;1.50;;;18.70;94.90;;;;;;5083825;28;20448;-65
2022/08/28 04:03:03;;;;;;;1.30;1.20;;;18.70;95.20;;;;;;5083519;28;20454;-65
2022/08/28 04:05:34;;;;;;;2.57;2.10;;;18.60;95.20;;;;;;5083938;28;20418;-65
2022/08/28 04:08:05;;;;;;;2.00;1.47;;;18.60;95.40;;;;;;5082850;28;20433;-65
2022/08/28 04:10:36;;;;;;;3.40;1.50;;;18.60;95.70;;;;;;5083680;28;20472;-65
2022/08/28 04:13:09;;;;;;;1.77;1.50;;;18.60;95.90;;;;;;5083301;28;20451;-64
2022/08/28 04:15:40;;;;;;;1.80;1.70;;;18.50;95.90;;;;;;5083418;28;20421;-65
2022/08/28 04:18:11;;;;;;;1.70;1.57;;;18.50;96.20;;;;;;5083905;28;20879;-65
2022/08/28 04:20:42;;;;;;;3.00;1.63;;;18.50;96.40;;;;;;5083352;28;20799;-65
2022/08/28 04:23:15;;;;;;;2.00;1.53;;;18.40;96.90;;;;;;5083178;28;20471;-65
2022/08/28 04:25:48;;;;;;;2.50;1.70;;;18.40;96.90;;;;;;5083327;28;20447;-65
2022/08/28 04:28:21;;;;;;;1.43;1.33;;;18.40;97.00;;;;;;5083350;28;20426;-65
2022/08/28 04:30:54;;;;;;;1.87;1.23;;;18.30;97.20;;;;;;5083096;28;20495;-65
2022/08/28 04:33:27;;;;;;;1.90;1.70;;;18.30;97.40;;;;;;5083196;28;20443;-64
2022/08/28 04:36:02;;;;;;;3.50;1.80;;;18.20;97.70;;;;;;5082854;28;20421;-65
2022/08/28 04:38:32;;;;;;;2.60;1.33;;;18.20;98.10;;;;;;5083359;28;20450;-65
2022/08/28 04:41:05;;;;;;;1.73;1.50;;;18.20;98.30;;;;;;5083163;28;20870;-64
2022/08/28 04:43:38;;;;;;;2.00;1.53;;;18.10;98.30;;;;;;5082695;28;20471;-64
2022/08/28 04:46:11;;;;;;;2.40;1.83;;;18.10;98.60;;;;;;5083019;28;20524;-65
2022/08/28 04:48:43;;;;;;;2.27;2.07;;;18.00;98.80;;;;;;5083099;28;20470;-65
2022/08/28 04:51:14;;;;;;;1.93;1.50;;;18.00;99.20;;;;;;5082605;28;20487;-64
2022/08/28 04:53:45;;;;;;;1.90;1.70;;;17.90;99.50;;;;;;5082786;28;20478;-64
2022/08/28 04:56:17;;;;;;;3.40;2.10;;;17.80;99.60;;;;;;5083068;28;20434;-65
2022/08/28 04:58:49;;;;;;;2.00;1.80;;;17.80;99.80;;;;;;5082842;28;20444;-64
2022/08/28 05:01:23;;;;;;;3.10;1.80;;;17.80;99.90;;;;;;5082881;28;20418;-64
2022/08/28 05:03:58;;;;;;;1.40;1.23;;;17.80;99.90;;;;;;5082535;28;20444;-65
2022/08/28 05:06:30;;;;;;;1.50;1.40;;;17.70;99.90;;;;;;5082830;28;20438;-64
2022/08/28 05:09:02;;;;;;;1.90;1.63;;;17.70;99.90;;;;;;5083173;28;20451;-64
2022/08/28 05:11:33;;;;;;;1.57;1.47;;;17.60;99.90;;;;;;5082898;28;20894;-64
2022/08/28 05:14:08;;;;;;;4.30;2.40;;;17.60;99.90;;;;;;5082629;28;20422;-65
2022/08/28 05:16:46;;;;;;;2.40;2.13;;;17.60;99.90;;;;;;5082784;28;20947;-64
2022/08/28 05:19:18;;;;;;;2.27;1.73;;;17.50;99.90;;;;;;5085239;28;20436;-64
2022/08/28 05:21:49;;;;;;;3.67;2.10;;;17.50;99.90;;;;;;5086323;28;20431;-65
2022/08/28 05:24:20;;;;;;;3.93;1.53;;;17.50;99.90;;;;;;5086401;28;20506;-65
2022/08/28 05:26:51;;;;;;;1.87;1.67;;;17.50;99.90;;;;;;5086417;28;20451;-65
2022/08/28 05:29:24;;;;;;;3.10;2.13;;;17.40;99.90;;;;;;5086710;28;20562;-65
2022/08/28 05:31:55;;;;;;;1.97;1.60;;;17.40;99.90;;;;;;5086263;28;20491;-65
2022/08/28 05:34:26;;;;;;;2.33;2.00;;;17.40;99.90;;;;;;5086317;28;20469;-65
2022/08/28 05:36:57;;;;;;;4.33;2.00;;;17.30;99.90;;;;;;5086056;28;20465;-64
2022/08/28 05:39:28;;;;;;;1.93;1.83;;;17.30;99.90;;;;;;5086284;28;20454;-64
2022/08/28 05:41:58;;;;;;;3.10;1.77;;;17.20;99.90;;;;;;5086050;28;20450;-64
2022/08/28 05:44:31;;;;;;;1.70;1.50;;;17.20;99.90;;;;;;5085881;28;20443;-65
2022/08/28 05:47:02;;;;;;;2.20;1.80;;;17.20;99.90;;;;;;5086105;28;20466;-65
2022/08/28 05:49:32;;;;;;;2.27;2.07;;;17.10;99.90;;;;;;5086192;28;20454;-65
2022/08/28 05:52:03;;;;;;;2.47;1.90;;;17.10;99.90;;;;;;5085718;28;20479;-64
2022/08/28 05:54:34;;;;;;;3.90;2.40;;;17.10;99.90;;;;;;5085986;28;20458;-65
2022/08/28 05:57:05;;;;;;;2.03;1.80;;;17.00;99.90;;;;;;5085889;28;20414;-64
2022/08/28 05:59:38;;;;;;;2.03;1.53;;;17.00;99.90;;;;;;5086103;28;20791;-65
2022/08/28 06:02:09;;;;;;;2.10;1.70;;;17.00;99.90;;;;;;5085484;28;20510;-64
2022/08/28 06:04:40;;;;;;;2.60;2.03;;;17.00;99.90;;;;;;5085501;28;21045;-65
2022/08/28 06:07:13;;;;;;;5.40;2.77;;;16.90;99.90;;;;;;5085497;28;20442;-65
2022/08/28 06:09:44;;;;;;;2.13;1.93;;;16.90;99.90;;;;;;5085924;28;20451;-64
2022/08/28 06:12:15;;;;;;;1.70;1.60;;;16.90;99.90;;;;;;5085462;28;20495;-64
2022/08/28 06:14:48;;;;;;;2.80;1.60;;;16.80;99.90;;;;;;5085384;28;20551;-64
2022/08/28 06:17:21;;;;;;;1.93;1.60;;;16.80;99.90;;;;;;5085482;28;20443;-64
2022/08/28 06:19:52;;;;;;;4.43;1.97;;;16.80;99.90;;;;;;5085933;28;20406;-65
2022/08/28 06:22:23;;;;;;;3.17;1.50;;;16.70;99.90;;;;;;5085052;28;20427;-64
2022/08/28 06:24:54;;;;;;;2.03;1.83;;;16.70;99.90;;;;;;5085512;28;20452;-64
2022/08/28 06:27:25;;;;;;;2.40;1.80;;;16.70;99.90;;;;;;5085230;28;20462;-64
2022/08/28 06:29:58;;;;;;;2.00;1.80;;;16.70;99.90;;;;;;5085272;28;20559;-64
2022/08/28 06:32:30;;;;;;;1.63;1.53;;;16.60;99.90;;;;;;5085023;28;20491;-64
2022/08/28 06:35:01;;;;;;;2.33;2.13;;;16.60;99.90;;;;;;5085121;28;20458;-64
2022/08/28 06:37:32;;;;;;;3.97;1.80;;;16.50;99.90;;;;;;5085015;28;20772;-64
2022/08/28 06:40:03;;;;;;;3.67;2.20;;;16.50;99.90;;;;;;5085290;28;20794;-64
2022/08/28 06:42:34;;;;;;;2.63;2.30;;;16.40;99.90;;;;;;5084950;28;20637;-64
2022/08/28 06:45:07;;;;;;;1.70;1.47;;;16.40;99.90;;;;;;5084822;28;20919;-64
2022/08/28 06:47:38;;;;;;;2.60;1.97;;;16.40;99.90;;;;;;5084977;28;20935;-64
2022/08/28 06:50:09;;;;;;;1.70;1.60;;;16.40;99.90;;;;;;5085187;28;20911;-64
2022/08/28 06:52:40;;;;;;;1.90;1.80;;;16.30;99.90;;;;;;5084318;28;20502;-64
2022/08/28 06:55:11;;;;;;;2.70;2.10;;;16.30;99.90;;;;;;5084834;28;20519;-63
2022/08/28 06:57:44;;;;;;;4.10;2.37;;;16.30;99.90;;;;;;5084773;28;20427;-64
2022/08/28 07:00:17;;;;;;;2.40;2.20;;;16.30;99.90;;;;;;5084932;28;20466;-64
2022/08/28 07:02:47;;;;;;;3.43;1.97;;;16.20;99.90;;;;;;5084640;28;21271;-64
2022/08/28 07:05:18;;;;;;;4.70;2.40;;;16.20;99.90;;;;;;5084935;28;20569;-64
2022/08/28 07:07:49;;;;;;;3.27;1.67;;;16.20;99.90;;;;;;5084057;28;20450;-64
2022/08/28 07:10:20;;;;;;;3.10;2.30;;;16.10;99.90;;;;;;5084555;28;20455;-64
2022/08/28 07:12:51;;;;;;;2.37;1.73;;;16.10;99.90;;;;;;5084248;28;20494;-64
2022/08/28 07:15:24;;;;;;;3.30;2.07;;;16.10;99.90;;;;;;5084180;28;20451;-64
2022/08/28 07:17:55;;;;;;;2.23;2.00;;;16.00;99.90;;;;;;5084307;28;20467;-65
2022/08/28 07:20:26;;;;;;;2.57;2.37;;;15.90;99.90;;;;;;5084782;28;20428;-64
2022/08/28 07:22:56;;;;;;;5.40;2.57;;;16.00;99.90;;;;;;5083687;28;20566;-64
2022/08/28 07:25:28;;;;;;;2.20;1.93;;;16.00;99.90;;;;;;5084240;28;20451;-64
2022/08/28 07:28:00;;;;;;;3.03;2.03;;;16.00;99.90;;;;;;5084003;28;20459;-64
2022/08/28 07:30:32;;;;;;;3.17;2.20;;;15.90;99.90;;;;;;5084362;28;20460;-64
2022/08/28 07:33:03;;;;;;;2.50;2.17;;;15.80;99.90;;;;;;5083840;28;20491;-64
2022/08/28 07:35:34;;;;;;;4.33;2.13;;;15.80;99.90;;;;;;5084161;28;20527;-63
2022/08/28 07:38:05;;;;;;;4.70;2.20;;;15.80;99.90;;;;;;5083468;28;20455;-63
2022/08/28 07:40:36;;;;;;;3.10;2.30;;;15.80;99.90;;;;;;5083745;28;20463;-63
2022/08/28 07:46:01;;;;;;;2.37;2.17;;;15.80;99.90;;;;;;5083616;28;20447;-64
2022/08/28 07:48:32;;;;;;;4.00;1.97;;;15.70;99.90;;;;;;5083806;28;20471;-64
2022/08/28 07:51:03;;;;;;;2.33;1.93;;;15.60;99.90;;;;;;5083014;28;20440;-64
2022/08/28 07:53:34;;;;;;;2.27;2.07;;;15.60;99.90;;;;;;5083892;28;20444;-64
2022/08/28 07:56:06;;;;;;;2.27;1.80;;;15.60;99.90;;;;;;5083478;28;20517;-64
2022/08/28 07:58:37;;;;;;;2.93;2.43;;;15.70;99.90;;;;;;5083811;28;20470;-64
2022/08/28 08:01:10;;;;;;;2.00;1.80;;;15.60;99.90;;;;;;5083709;28;20426;-64
2022/08/28 08:03:41;;;;;;;2.50;1.87;;;15.70;99.90;;;;;;5083486;28;20443;-64
2022/08/28 08:06:14;;;;;;;3.00;2.67;;;15.60;99.90;;;;;;5082998;28;20899;-64
2022/08/28 08:08:46;;;;;;;2.57;2.20;;;15.60;99.90;;;;;;5083899;28;20432;-64
2022/08/28 08:11:19;;;;;;;2.60;2.40;;;15.50;99.90;;;;;;5083293;28;20451;-64
2022/08/28 08:13:52;;;;;;;2.57;2.37;;;15.50;99.90;;;;;;5083413;28;20512;-64
2022/08/28 08:16:27;;;;;;;2.93;2.40;;;15.40;99.90;;;;;;5083270;28;20443;-64
2022/08/28 08:18:59;;;;;;;2.53;1.90;;;15.30;99.90;;;;;;5083381;28;20447;-64
2022/08/28 08:21:31;;;;;;;2.97;2.23;;;15.30;99.90;;;;;;5082907;28;20424;-65
2022/08/28 08:24:01;;;;;;;3.47;2.00;;;15.30;99.90;;;;;;5083654;28;20431;-64
2022/08/28 08:26:33;;;;;;;1.90;1.50;;;15.30;99.90;;;;;;5083151;28;20447;-64
2022/08/28 08:29:03;;;;;;;3.30;1.80;;;15.30;99.90;;;;;;5083389;28;20455;-64
2022/08/28 08:31:36;;;;;;;2.30;2.00;;;15.20;99.90;;;;;;5083153;28;20924;-64
2022/08/28 08:34:12;;;;;;;2.60;1.90;;;15.10;99.90;;;;;;5083338;28;20450;-64
2022/08/28 08:36:42;;;;;;;3.30;1.70;;;15.20;99.90;;;;;;5082493;28;20550;-64
2022/08/28 08:39:13;;;;;;;2.00;1.83;;;15.10;99.90;;;;;;5083528;28;20432;-64
2022/08/28 08:41:46;;;;;;;2.50;1.80;;;15.10;99.90;;;;;;5082848;28;20443;-64
2022/08/28 08:44:26;;;;;;;2.30;1.80;;;15.10;99.90;;;;;;5083152;28;20467;-64
2022/08/28 08:47:12;;;;;;;2.40;2.20;;;15.00;99.90;;;;;;5082914;28;20474;-64
2022/08/28 08:49:51;;;;;;;2.07;1.90;;;15.00;99.90;;;;;;5083351;28;20636;-64
2022/08/28 08:52:41;;;;;;;2.93;2.10;;;14.90;99.90;;;;;;5082566;28;20461;-64
2022/08/28 08:55:30;;;;;;;3.17;2.53;;;14.90;99.90;;;;;;5087284;28;20489;-64
2022/08/28 08:58:07;;;;;;;3.53;2.20;;;14.90;99.90;;;;;;5086639;28;20447;-64
2022/08/28 09:00:43;;;;;;;3.30;2.10;;;14.90;99.90;;;;;;5087442;28;20439;-63
2022/08/28 09:03:21;;;;;;;2.87;1.93;;;14.90;99.90;;;;;;5086976;28;20455;-64
2022/08/28 09:05:56;;;;;;;2.70;2.23;;;14.80;99.90;;;;;;5086373;28;20447;-64
2022/08/28 09:08:35;;;;;;;2.43;2.23;;;14.80;99.90;;;;;;5086754;28;20461;-64
2022/08/28 09:11:15;;;;;;;2.27;2.07;;;14.70;99.90;;;;;;5086852;28;20447;-64
2022/08/28 09:13:59;;;;;;;3.10;2.40;;;14.70;99.90;;;;;;5086803;28;20827;-64
2022/08/28 09:16:33;;;;;;;2.23;2.00;;;14.70;99.90;;;;;;5086762;28;20463;-64
2022/08/28 09:19:07;;;;;;;6.33;2.67;;;14.60;99.90;;;;;;5086655;28;20514;-64
2022/08/28 09:21:42;;;;;;;3.37;2.30;;;14.50;99.90;;;;;;5086401;28;20443;-64
2022/08/28 09:24:21;;;;;;;2.63;1.93;;;14.50;99.90;;;;;;5086795;28;20458;-64
2022/08/28 09:26:57;;;;;;;2.80;2.50;;;14.50;99.90;;;;;;5086482;28;20451;-64
2022/08/28 09:29:33;;;;;;;2.33;2.17;;;14.40;99.90;;;;;;5086644;28;20450;-64
2022/08/28 09:32:22;;;;;;;4.10;2.67;;;14.40;99.90;;;;;;5086281;28;20458;-64
2022/08/28 09:35:12;;;;;;;3.80;2.27;;;14.50;99.90;;;;;;5086534;28;20946;-64
2022/08/28 09:37:43;;;;;;;2.70;2.27;;;14.40;99.90;;;;;;5085576;28;20439;-64
2022/08/28 09:40:21;;;;;;;3.03;2.43;;;14.40;99.90;;;;;;5086570;28;20448;-64
2022/08/28 09:45:57;;;;;;;3.97;2.97;;;14.30;99.90;;;;;;5086258;28;20447;-64
2022/08/28 09:48:34;;;;;;;2.70;2.20;;;14.30;99.90;;;;;;5086083;28;20474;-64
2022/08/28 09:51:08;;;;;;;2.73;2.53;;;14.20;99.90;;;;;;5085686;28;20454;-63
2022/08/28 09:53:55;;;;;;;2.40;2.20;;;14.30;99.90;;;;;;5085927;28;20564;-64
2022/08/28 09:56:30;;;;;;;2.30;2.03;;;14.40;99.90;;;;;;5085873;28;20469;-64
2022/08/28 09:59:05;;;;;;;3.33;2.13;;;14.40;99.90;;;;;;5085871;28;20450;-64
2022/08/28 10:01:44;;;;;;;2.33;2.00;;;14.40;99.90;;;;;;5086233;28;20453;-64
2022/08/28 10:04:32;;;;;;;1.83;1.67;;;14.50;99.90;;;;;;5085818;28;20502;-63
2022/08/28 10:07:08;;;;;;;2.97;2.13;;;14.40;99.90;;;;;;5085154;28;20462;-64
2022/08/28 10:09:49;;;;;;;3.27;2.30;;;14.50;99.90;;;;;;5085835;28;20443;-64
2022/08/28 10:12:34;;;;;;;2.57;2.37;;;14.50;99.90;;;;;;5085503;28;20451;-64
2022/08/28 10:15:16;;;;;;;3.13;2.20;;;14.50;99.90;;;;;;5085604;28;20444;-64
2022/08/28 10:18:00;;;;;;;3.03;2.40;;;14.50;99.90;;;;;;5085371;28;20947;-64
2022/08/28 10:20:40;;;;;;;2.00;1.90;;;14.40;99.90;;;;;;5085806;28;20447;-64
2022/08/28 10:23:18;;;;;;;3.10;1.90;;;14.30;99.90;;;;;;5085449;28;20443;-64
2022/08/28 10:25:56;;;;;;;2.60;2.10;;;14.20;99.90;;;;;;5085716;28;20443;-64
2022/08/28 10:28:42;;;;;;;7.53;2.53;;;14.20;99.90;;;;;;5085565;28;20439;-64
2022/08/28 10:31:20;;;;;;;5.07;2.80;;;14.30;99.90;;;;;;5085354;28;20473;-63
2022/08/28 10:34:05;;;;;;;3.23;2.20;;;14.20;99.90;;;;;;5085317;28;20491;-64
2022/08/28 10:36:37;;;;;;;3.27;1.97;;;14.20;99.90;;;;;;5084727;28;20443;-64
2022/08/28 10:39:34;;;;;;;2.83;2.60;;;14.20;99.90;;;;;;5085210;28;20443;-64
2022/08/28 10:42:07;;;;;;;1.77;1.63;;;14.20;99.90;;;;;;5084998;28;20497;-64
2022/08/28 10:44:44;;;;;;;2.70;2.17;;;14.20;99.90;;;;;;5085075;28;20470;-64
2022/08/28 10:47:16;;;;;;;4.73;2.70;;;14.10;99.90;;;;;;5085362;28;20897;-63
2022/08/28 10:49:50;;;;;;;3.10;2.33;;;14.10;99.90;;;;;;5085127;28;20439;-63
2022/08/28 10:52:24;;;;;;;3.63;2.83;;;14.10;99.90;;;;;;5084237;28;20457;-63
2022/08/28 10:55:05;;;;;;;3.90;2.40;;;14.00;99.90;;;;;;5084953;28;20491;-64
2022/08/28 10:57:41;;;;;;;3.90;2.80;;;14.00;99.90;;;;;;5084769;28;20451;-64
2022/08/28 11:00:15;;;;;;;3.10;2.50;;;14.00;99.90;;;;;;5084842;28;20451;-63
2022/08/28 11:02:48;;;;;;;3.80;2.83;;;13.90;99.90;;;;;;5084395;28;20443;-64
2022/08/28 11:05:23;;;;;;;3.00;2.37;;;13.80;99.90;;;;;;5084774;28;20449;-63
2022/08/28 11:07:56;;;;;;;3.17;2.50;;;13.80;99.90;;;;;;5084065;28;20889;-63
2022/08/28 11:10:45;;;;;;;4.90;3.37;;;13.80;99.90;;;;;;5084549;28;20513;-63
2022/08/28 11:13:40;;;;;;;2.43;1.93;;;13.80;99.90;;;;;;5084394;28;20493;-63
2022/08/28 11:16:20;;;;;;;2.40;2.20;;;13.70;99.90;;;;;;5083387;28;20452;-63
2022/08/28 11:19:14;;;;;;;3.20;2.10;;;13.70;99.90;;;;;;5084159;28;20530;-64
2022/08/28 11:21:48;;;;;;;4.23;2.40;;;13.60;99.90;;;;;;5083666;28;20455;-64
2022/08/28 11:24:30;;;;;;;5.53;2.80;;;13.60;99.90;;;;;;5084270;28;20446;-63
2022/08/28 11:27:17;;;;;;;3.43;2.80;;;13.60;99.90;;;;;;5083967;28;20443;-64
2022/08/28 11:30:30;;;;;;;2.50;2.30;;;13.50;99.90;;;;;;5084469;28;20451;-63
2022/08/28 11:33:05;;;;;;;4.37;3.20;;;13.60;99.90;;;;;;5083821;28;20435;-64
2022/08/28 11:35:42;;;;;;;2.67;2.30;;;13.60;99.90;;;;;;5084483;28;20443;-63
2022/08/28 11:38:34;;;;;;;2.87;2.50;;;13.60;99.90;;;;;;5084012;28;20457;-64
2022/08/28 11:41:14;;;;;;;3.50;2.93;;;13.60;99.90;;;;;;5083996;28;20443;-63
2022/08/28 11:43:48;;;;;;;3.43;3.03;;;13.60;99.90;;;;;;5083700;28;20471;-64
2022/08/28 11:46:28;;;;;;;4.53;2.70;;;13.60;99.90;;;;;;5083796;28;20452;-64
2022/08/28 11:49:01;;;;;;;6.13;3.33;;;13.50;99.90;;;;;;5083477;28;20443;-64
2022/08/28 11:51:55;;;;;;;3.23;2.53;;;13.40;99.90;;;;;;5083182;28;20481;-64
2022/08/28 11:54:40;;;;;;;2.87;2.57;;;13.40;99.90;;;;;;5083769;28;20487;-64
2022/08/28 11:57:18;;;;;;;5.43;3.10;;;13.40;99.90;;;;;;5083519;28;20444;-64
2022/08/28 12:00:05;;;;;;;3.83;2.80;;;13.40;99.90;;;;;;5083635;28;20454;-63
2022/08/28 12:02:50;;;;;;;3.90;1.90;;;13.50;99.90;;;;;;5083384;28;20443;-63
2022/08/28 12:05:55;;;;;;;3.13;2.70;;;13.40;99.90;;;;;;5083664;28;20446;-63
2022/08/28 12:09:11;;;;;;;4.97;3.17;;;13.40;99.90;;;;;;5041424;28;20449;-64
2022/08/28 12:11:59;;;;;;;3.60;2.57;;;13.30;99.90;;;;;;5041113;28;20495;-64
2022/08/28 12:15:08;;;;;;;3.00;2.53;;;13.30;99.90;;;;;;5041120;28;20501;-63
2022/08/28 12:17:52;;;;;;;2.50;2.30;;;13.20;99.90;;;;;;5041150;28;20460;-64
2022/08/28 12:20:38;;;;;;;4.03;2.30;;;13.20;99.90;;;;;;5041190;28;20491;-64
2022/08/28 12:23:37;;;;;;;5.60;2.77;;;13.10;99.90;;;;;;5040888;28;20453;-64
2022/08/28 12:26:12;;;;;;;2.63;2.30;;;13.20;99.90;;;;;;5040950;28;20453;-64
2022/08/28 12:28:48;;;;;;;3.93;3.27;;;13.20;99.90;;;;;;5040787;28;20449;-64
2022/08/28 12:32:13;;;;;;;4.77;2.93;;;13.30;99.90;;;;;;5040634;28;20441;-64
2022/08/28 12:35:04;;;;;;;3.43;2.67;;;13.30;99.90;;;;;;5041055;28;20499;-64
2022/08/28 12:37:42;;;;;;;3.10;2.23;;;13.50;99.90;;;;;;5039608;28;20449;-63
2022/08/28 12:40:25;;;;;;;2.80;2.60;;;13.40;99.90;;;;;;5078998;28;20479;-63
2022/08/28 12:42:58;;;;;;;3.13;2.40;;;13.40;99.90;;;;;;5082835;28;20478;-64
2022/08/28 12:45:41;;;;;;;2.87;2.57;;;13.40;99.90;;;;;;5083453;28;20424;-63
2022/08/28 12:48:19;;;;;;;3.80;2.80;;;13.40;99.90;;;;;;5083094;28;20526;-63
2022/08/28 12:50:58;;;;;;;4.57;3.27;;;13.40;99.90;;;;;;5082467;28;20558;-64
2022/08/28 12:53:40;;;;;;;4.23;3.50;;;13.30;99.90;;;;;;5083056;28;20458;-63
2022/08/28 12:56:12;;;;;;;3.80;2.70;;;13.30;99.90;;;;;;5082975;28;20454;-64
2022/08/28 12:58:44;;;;;;;2.63;2.23;;;13.30;99.90;;;;;;5083264;28;20447;-63
2022/08/28 13:01:17;;;;;;;3.03;2.20;;;13.30;99.90;;;;;;5083019;28;20451;-63
2022/08/28 13:03:50;;;;;;;3.50;2.60;;;13.20;99.90;;;;;;5083403;28;20488;-63
2022/08/28 13:06:27;;;;;;;4.33;2.73;;;13.20;99.90;;;;;;5082480;28;20448;-63
2022/08/28 13:09:02;;;;;;;2.97;2.37;;;13.10;99.90;;;;;;5083032;28;20510;-63
2022/08/28 13:11:37;;;;;;;3.00;2.70;;;13.10;99.90;;;;;;5082867;28;20498;-63
2022/08/28 13:14:08;;;;;;;5.50;2.47;;;13.00;99.90;;;;;;5082810;28;20485;-63
2022/08/28 13:16:42;;;;;;;3.27;2.97;;;13.10;99.90;;;;;;5082805;28;20447;-63
2022/08/28 13:19:29;;;;;;;2.73;2.30;;;13.10;99.90;;;;;;5083154;28;20508;-63
2022/08/28 13:22:03;;;;;;;3.10;2.37;;;13.10;99.90;;;;;;5082273;28;20447;-63
2022/08/28 13:24:46;;;;;;;4.90;2.40;;;13.10;99.90;;;;;;5082927;28;20518;-63
2022/08/28 13:27:23;;;;;;;4.60;2.60;;;13.10;99.90;;;;;;5082670;28;20454;-63
2022/08/28 13:30:05;;;;;;;4.13;2.47;;;13.10;99.90;;;;;;5082918;28;20447;-63
2022/08/28 13:32:38;;;;;;;5.17;2.90;;;13.10;99.90;;;;;;5082683;28;20469;-64
2022/08/28 13:35:28;;;;;;;3.50;3.20;;;13.10;99.90;;;;;;5082747;28;20846;-63
2022/08/28 13:38:02;;;;;;;4.07;2.60;;;13.10;99.90;;;;;;5082086;28;20447;-63
2022/08/28 13:40:35;;;;;;;3.03;2.70;;;13.10;99.90;;;;;;5085180;28;20427;-64